createdAt,value
2017-09-06T00:01:02.269Z,99.90
2017-09-06T00:03:29.884Z,99.90
2017-09-06T00:05:57.445Z,99.90
2017-09-06T00:08:25.020Z,99.90
2017-09-06T00:10:52.627Z,99.90
2017-09-06T00:13:21.019Z,99.90
2017-09-06T00:15:48.591Z,99.90
2017-09-06T00:18:16.181Z,99.90
2017-09-06T00:20:43.738Z,99.90
2017-09-06T00:23:12.157Z,99.90
2017-09-06T00:25:39.755Z,99.90
2017-09-06T00:28:07.344Z,99.90
2017-09-06T00:30:34.931Z,99.90
2017-09-06T00:33:02.521Z,99.90
2017-09-06T00:35:30.125Z,99.90
2017-09-06T00:37:57.705Z,99.90
2017-09-06T00:40:25.302Z,99.90
2017-09-06T00:42:52.894Z,99.90
2017-09-06T00:45:20.483Z,99.90
2017-09-06T00:47:48.069Z,99.90
2017-09-06T00:50:15.639Z,99.90
2017-09-06T00:52:43.216Z,99.90
2017-09-06T00:55:10.831Z,99.90
2017-09-06T00:57:38.392Z,99.90
2017-09-06T01:00:05.958Z,99.90
2017-09-06T01:02:33.548Z,99.90
2017-09-06T01:05:01.132Z,99.90
2017-09-06T01:07:28.707Z,99.90
2017-09-06T01:09:56.294Z,99.90
2017-09-06T01:12:23.867Z,99.90
2017-09-06T01:14:51.443Z,99.90
2017-09-06T01:17:19.041Z,99.90
2017-09-06T01:19:46.626Z,99.50
2017-09-06T01:22:14.199Z,99.50
2017-09-06T01:24:41.795Z,99.30
2017-09-06T01:27:09.378Z,99.00
2017-09-06T01:29:36.951Z,99.10
2017-09-06T01:32:04.569Z,99.00
2017-09-06T01:34:32.154Z,98.90
2017-09-06T01:36:59.740Z,99.00
2017-09-06T01:39:27.358Z,99.10
2017-09-06T01:41:54.933Z,99.20
2017-09-06T01:44:22.504Z,99.30
2017-09-06T01:46:50.107Z,99.30
2017-09-06T01:49:17.706Z,99.20
2017-09-06T01:51:45.278Z,99.40
2017-09-06T01:54:12.890Z,99.60
2017-09-06T01:56:40.473Z,99.70
2017-09-06T01:59:08.064Z,99.70
2017-09-06T02:01:35.746Z,99.80
2017-09-06T02:04:15.290Z,99.90
2017-09-06T02:06:42.910Z,99.90
2017-09-06T02:09:10.474Z,99.90
2017-09-06T02:11:38.040Z,99.90
2017-09-06T02:14:05.632Z,99.90
2017-09-06T02:16:33.218Z,99.90
2017-09-06T02:19:00.801Z,99.90
2017-09-06T02:21:28.366Z,99.80
2017-09-06T02:23:55.957Z,99.70
2017-09-06T02:26:23.566Z,99.50
2017-09-06T02:28:51.150Z,99.50
2017-09-06T02:31:18.769Z,99.80
2017-09-06T02:38:46.002Z,99.90
2017-09-06T02:41:13.575Z,99.90
2017-09-06T02:43:41.181Z,99.90
2017-09-06T02:46:08.754Z,99.90
2017-09-06T02:48:36.331Z,99.90
2017-09-06T02:51:03.930Z,99.90
2017-09-06T02:53:31.499Z,99.90
2017-09-06T02:55:59.095Z,99.90
2017-09-06T02:58:26.677Z,99.90
2017-09-06T03:00:54.279Z,99.90
2017-09-06T03:03:21.845Z,99.90
2017-09-06T03:05:49.449Z,99.90
2017-09-06T03:08:17.015Z,99.90
2017-09-06T03:10:44.626Z,99.90
2017-09-06T03:13:12.216Z,99.90
2017-09-06T03:15:39.787Z,99.90
2017-09-06T03:18:07.385Z,99.90
2017-09-06T03:20:34.957Z,99.90
2017-09-06T03:23:02.568Z,99.90
2017-09-06T03:25:30.125Z,99.90
2017-09-06T03:27:57.717Z,99.70
2017-09-06T03:30:25.299Z,99.80
2017-09-06T03:32:52.871Z,99.70
2017-09-06T03:35:20.457Z,99.60
2017-09-06T03:37:48.035Z,99.30
2017-09-06T03:40:15.623Z,99.40
2017-09-06T03:42:43.201Z,99.00
2017-09-06T03:45:10.783Z,99.30
2017-09-06T03:47:38.375Z,99.10
2017-09-06T03:50:05.941Z,99.20
2017-09-06T03:52:33.543Z,99.30
2017-09-06T03:55:01.131Z,99.00
2017-09-06T03:57:28.702Z,99.30
2017-09-06T03:59:56.282Z,99.40
2017-09-06T04:02:23.840Z,99.40
2017-09-06T04:04:51.445Z,99.60
2017-09-06T04:07:19.015Z,99.60
2017-09-06T04:09:46.624Z,99.30
2017-09-06T04:12:14.191Z,99.40
2017-09-06T04:14:41.756Z,99.60
2017-09-06T04:17:09.370Z,99.70
2017-09-06T04:19:36.943Z,99.60
2017-09-06T04:22:04.553Z,99.80
2017-09-06T04:24:32.145Z,99.70
2017-09-06T04:26:59.742Z,99.80
2017-09-06T04:29:27.326Z,99.90
2017-09-06T04:31:55.664Z,99.80
2017-09-06T04:34:23.249Z,99.80
2017-09-06T04:36:50.800Z,99.70
2017-09-06T04:39:18.373Z,99.90
2017-09-06T04:41:45.926Z,99.90
2017-09-06T04:44:13.526Z,99.90
2017-09-06T04:46:41.879Z,99.90
2017-09-06T04:49:09.505Z,99.90
2017-09-06T04:51:37.115Z,99.40
2017-09-06T04:54:04.688Z,99.40
2017-09-06T04:56:32.293Z,99.50
2017-09-06T04:58:59.863Z,99.00
2017-09-06T05:01:27.467Z,99.00
2017-09-06T05:03:55.040Z,99.00
2017-09-06T05:06:22.909Z,99.80
2017-09-06T05:08:50.502Z,99.80
2017-09-06T05:11:18.072Z,99.90
2017-09-06T05:13:45.675Z,99.90
2017-09-06T05:16:13.243Z,99.90
2017-09-06T05:18:40.837Z,99.90
2017-09-06T05:21:08.447Z,99.90
2017-09-06T05:23:36.015Z,99.90
2017-09-06T05:26:03.629Z,99.90
2017-09-06T05:28:31.188Z,99.90
2017-09-06T05:30:58.817Z,99.90
2017-09-06T05:33:26.391Z,99.90
2017-09-06T05:35:53.963Z,99.90
2017-09-06T05:38:21.549Z,99.90
2017-09-06T05:40:49.123Z,99.90
2017-09-06T05:43:16.728Z,99.90
2017-09-06T05:45:44.308Z,99.90
2017-09-06T05:48:11.883Z,99.90
2017-09-06T05:50:39.476Z,99.90
2017-09-06T05:53:07.054Z,99.90
2017-09-06T05:55:34.711Z,99.90
2017-09-06T05:58:02.276Z,99.90
2017-09-06T06:00:29.870Z,99.90
2017-09-06T06:02:57.449Z,99.90
2017-09-06T06:05:25.012Z,99.90
2017-09-06T06:07:52.607Z,99.90
2017-09-06T06:10:20.184Z,99.90
2017-09-06T06:12:47.741Z,99.90
2017-09-06T06:15:15.321Z,99.90
2017-09-06T06:17:42.907Z,99.90
2017-09-06T06:20:10.521Z,99.90
2017-09-06T06:22:38.110Z,99.90
2017-09-06T06:25:05.699Z,99.90
2017-09-06T06:27:33.288Z,99.90
2017-09-06T06:30:00.858Z,99.90
2017-09-06T06:32:28.463Z,99.90
2017-09-06T06:34:56.034Z,99.90
2017-09-06T06:37:23.625Z,99.90
2017-09-06T06:39:51.226Z,99.90
2017-09-06T06:42:18.786Z,99.90
2017-09-06T06:44:46.392Z,99.90
2017-09-06T06:47:13.961Z,99.90
2017-09-06T06:49:41.539Z,99.60
2017-09-06T06:52:09.151Z,99.40
2017-09-06T06:54:36.740Z,99.30
2017-09-06T06:57:04.362Z,99.30
2017-09-06T06:59:31.925Z,99.50
2017-09-06T07:01:59.503Z,99.20
2017-09-06T07:04:27.082Z,99.50
2017-09-06T07:06:54.659Z,99.60
2017-09-06T07:09:22.264Z,99.70
2017-09-06T07:11:49.835Z,99.90
2017-09-06T07:14:17.397Z,99.90
2017-09-06T07:16:45.005Z,99.90
2017-09-06T07:19:12.592Z,99.90
2017-09-06T07:21:40.195Z,99.90
2017-09-06T07:24:07.791Z,99.90
2017-09-06T07:26:35.380Z,99.90
2017-09-06T07:29:02.999Z,99.90
2017-09-06T07:31:30.609Z,99.40
2017-09-06T07:33:58.233Z,99.60
2017-09-06T07:36:25.830Z,99.50
2017-09-06T07:38:53.417Z,99.70
2017-09-06T07:41:21.026Z,99.60
2017-09-06T07:43:48.617Z,99.50
2017-09-06T07:46:16.237Z,99.50
2017-09-06T07:48:43.822Z,99.70
2017-09-06T07:51:11.405Z,98.90
2017-09-06T07:53:39.009Z,98.80
2017-09-06T07:56:06.617Z,99.00
2017-09-06T07:58:34.237Z,98.70
2017-09-06T08:01:01.850Z,99.20
2017-09-06T08:03:30.201Z,98.20
2017-09-06T08:05:57.812Z,98.20
2017-09-06T08:08:25.417Z,98.00
2017-09-06T08:10:53.068Z,97.60
2017-09-06T08:13:20.683Z,98.00
2017-09-06T08:15:49.050Z,97.70
2017-09-06T08:18:16.700Z,97.70
2017-09-06T08:20:44.351Z,97.00
2017-09-06T08:23:11.991Z,97.00
2017-09-06T08:25:39.582Z,96.40
2017-09-06T08:28:07.173Z,96.20
2017-09-06T08:30:35.546Z,95.90
2017-09-06T08:33:03.139Z,95.90
2017-09-06T08:35:30.765Z,95.30
2017-09-06T08:37:59.125Z,94.90
2017-09-06T08:40:26.718Z,94.90
2017-09-06T08:42:54.322Z,95.20
2017-09-06T08:45:22.109Z,94.70
2017-09-06T08:47:49.786Z,95.20
2017-09-06T08:50:17.397Z,95.10
2017-09-06T08:52:44.993Z,94.60
2017-09-06T08:55:12.634Z,94.70
2017-09-06T08:57:40.229Z,94.50
2017-09-06T09:00:07.853Z,94.60
2017-09-06T09:02:35.558Z,94.40
2017-09-06T09:05:03.155Z,94.30
2017-09-06T09:07:31.533Z,94.30
2017-09-06T09:09:59.890Z,94.00
2017-09-06T09:12:27.523Z,94.00
2017-09-06T09:14:55.114Z,94.20
2017-09-06T09:17:22.715Z,93.90
2017-09-06T09:19:51.618Z,93.20
2017-09-06T09:22:20.098Z,93.10
2017-09-06T09:24:47.737Z,93.00
2017-09-06T09:27:15.433Z,93.10
2017-09-06T09:29:43.046Z,93.30
2017-09-06T09:32:10.657Z,93.90
2017-09-06T09:34:38.258Z,93.80
2017-09-06T09:37:05.886Z,93.40
2017-09-06T09:39:33.481Z,94.00
2017-09-06T09:42:01.083Z,93.30
2017-09-06T09:44:29.479Z,93.10
2017-09-06T09:46:57.887Z,92.80
2017-09-06T09:49:25.549Z,92.80
2017-09-06T09:51:53.134Z,93.20
2017-09-06T09:54:20.745Z,93.00
2017-09-06T09:56:48.369Z,91.80
2017-09-06T09:59:15.970Z,91.50
2017-09-06T10:01:43.594Z,90.60
2017-09-06T10:04:11.177Z,90.00
2017-09-06T10:06:38.761Z,84.60
2017-09-06T10:09:06.375Z,84.30
2017-09-06T10:11:33.953Z,80.40
2017-09-06T10:14:01.570Z,79.10
2017-09-06T10:16:29.162Z,78.50
2017-09-06T10:18:56.749Z,80.60
2017-09-06T10:21:24.362Z,77.10
2017-09-06T10:23:51.952Z,76.20
2017-09-06T10:26:19.575Z,77.00
2017-09-06T10:28:47.161Z,77.90
2017-09-06T10:31:14.742Z,76.80
2017-09-06T10:33:42.353Z,76.80
2017-09-06T10:36:09.943Z,77.30
2017-09-06T10:38:37.569Z,77.60
2017-09-06T10:41:05.169Z,78.50
2017-09-06T10:43:32.744Z,78.50
2017-09-06T10:46:00.330Z,78.30
2017-09-06T10:48:27.918Z,76.60
2017-09-06T10:50:55.528Z,74.80
2017-09-06T10:53:23.121Z,76.70
2017-09-06T10:55:50.728Z,77.20
2017-09-06T10:58:18.346Z,76.00
2017-09-06T11:00:45.917Z,74.60
2017-09-06T11:03:13.527Z,75.60
2017-09-06T11:05:41.097Z,76.60
2017-09-06T11:08:08.670Z,76.20
2017-09-06T11:10:36.303Z,73.30
2017-09-06T11:13:03.883Z,73.50
2017-09-06T11:15:31.443Z,69.70
2017-09-06T11:17:59.054Z,70.80
2017-09-06T11:20:26.614Z,70.40
2017-09-06T11:22:54.232Z,70.30
2017-09-06T11:25:21.786Z,70.50
2017-09-06T11:27:49.345Z,68.00
2017-09-06T11:30:16.945Z,69.10
2017-09-06T11:32:44.518Z,67.60
2017-09-06T11:35:12.097Z,69.00
2017-09-06T11:37:39.667Z,70.20
2017-09-06T11:40:07.305Z,72.40
2017-09-06T11:42:34.911Z,73.20
2017-09-06T11:45:02.510Z,72.70
2017-09-06T11:47:30.088Z,76.00
2017-09-06T11:49:57.663Z,71.40
2017-09-06T11:52:25.255Z,70.80
2017-09-06T11:54:52.836Z,71.00
2017-09-06T11:57:20.438Z,70.00
2017-09-06T11:59:48.008Z,71.80
2017-09-06T12:02:15.586Z,71.10
2017-09-06T12:04:43.143Z,71.60
2017-09-06T12:07:10.743Z,73.80
2017-09-06T12:09:38.334Z,70.60
2017-09-06T12:12:05.947Z,66.70
2017-09-06T12:14:33.537Z,67.40
2017-09-06T12:17:01.123Z,68.00
2017-09-06T12:19:28.696Z,68.90
2017-09-06T12:21:56.301Z,66.50
2017-09-06T12:24:23.876Z,68.40
2017-09-06T12:26:51.477Z,68.60
2017-09-06T12:29:19.032Z,69.10
2017-09-06T12:31:46.647Z,67.90
2017-09-06T12:34:14.216Z,67.20
2017-09-06T12:36:41.769Z,67.30
2017-09-06T12:39:10.130Z,64.70
2017-09-06T12:41:37.733Z,64.70
2017-09-06T12:44:05.317Z,62.80
2017-09-06T12:46:32.885Z,64.60
2017-09-06T12:49:00.471Z,64.00
2017-09-06T12:51:28.029Z,61.70
2017-09-06T12:53:55.625Z,63.50
2017-09-06T12:56:23.217Z,62.90
2017-09-06T12:58:50.796Z,62.20
2017-09-06T13:01:18.400Z,64.10
2017-09-06T13:03:45.968Z,61.80
2017-09-06T13:06:13.559Z,62.50
2017-09-06T13:08:41.127Z,62.20
2017-09-06T13:11:08.733Z,59.30
2017-09-06T13:13:36.322Z,58.00
2017-09-06T13:16:03.911Z,57.10
2017-09-06T13:18:31.499Z,57.60
2017-09-06T13:20:59.077Z,58.80
2017-09-06T13:23:26.629Z,59.90
2017-09-06T13:25:54.224Z,58.80
2017-09-06T13:28:21.810Z,57.00
2017-09-06T13:30:49.618Z,56.50
2017-09-06T13:33:17.246Z,58.00
2017-09-06T13:35:44.809Z,57.00
2017-09-06T13:38:12.426Z,57.20
2017-09-06T13:40:40.036Z,56.90
2017-09-06T13:43:07.660Z,57.90
2017-09-06T13:45:35.263Z,56.00
2017-09-06T13:48:02.861Z,55.60
2017-09-06T13:50:30.444Z,53.80
2017-09-06T13:52:58.020Z,54.70
2017-09-06T13:55:25.621Z,55.70
2017-09-06T13:57:53.177Z,55.70
2017-09-06T14:00:20.772Z,55.00
2017-09-06T14:02:48.327Z,55.60
2017-09-06T14:05:15.916Z,57.10
2017-09-06T14:07:43.509Z,57.10
2017-09-06T14:10:11.845Z,60.40
2017-09-06T14:12:39.448Z,60.30
2017-09-06T14:15:07.023Z,61.90
2017-09-06T14:17:35.341Z,64.10
2017-09-06T14:20:02.953Z,64.10
2017-09-06T14:22:30.509Z,64.00
2017-09-06T14:24:58.090Z,65.00
2017-09-06T14:27:25.669Z,66.40
2017-09-06T14:29:53.278Z,66.30
2017-09-06T14:32:20.848Z,66.70
2017-09-06T14:34:48.405Z,66.40
2017-09-06T14:37:15.982Z,68.20
2017-09-06T14:39:43.573Z,67.30
2017-09-06T14:42:11.167Z,67.80
2017-09-06T14:44:38.721Z,65.60
2017-09-06T14:47:06.303Z,64.80
2017-09-06T14:49:33.861Z,61.10
2017-09-06T14:52:01.466Z,62.40
2017-09-06T14:54:29.040Z,63.70
2017-09-06T14:56:56.657Z,60.90
2017-09-06T14:59:24.263Z,61.20
2017-09-06T15:01:52.600Z,61.40
2017-09-06T15:04:20.176Z,61.40
2017-09-06T15:06:47.752Z,62.00
2017-09-06T15:09:15.356Z,60.70
2017-09-06T15:11:42.941Z,60.60
2017-09-06T15:14:10.537Z,60.50
2017-09-06T15:16:38.144Z,61.60
2017-09-06T15:19:05.726Z,61.60
2017-09-06T15:21:33.315Z,61.10
2017-09-06T15:24:00.906Z,61.60
2017-09-06T15:26:29.252Z,60.10
2017-09-06T15:28:56.820Z,60.00
2017-09-06T15:31:24.384Z,60.00
2017-09-06T15:33:51.979Z,60.00
2017-09-06T15:36:19.537Z,61.10
2017-09-06T15:38:47.112Z,60.50
2017-09-06T15:41:14.671Z,60.40
2017-09-06T15:43:42.276Z,60.50
2017-09-06T15:46:09.832Z,60.30
2017-09-06T15:48:37.385Z,61.40
2017-09-06T15:51:04.975Z,61.30
2017-09-06T15:53:32.543Z,60.90
2017-09-06T15:56:00.143Z,61.00
2017-09-06T15:58:27.729Z,61.30
2017-09-06T16:00:55.323Z,62.20
2017-09-06T16:03:22.882Z,63.10
2017-09-06T16:05:50.515Z,62.90
2017-09-06T16:08:18.102Z,62.30
2017-09-06T16:10:45.684Z,62.80
2017-09-06T16:13:13.285Z,63.90
2017-09-06T16:15:40.875Z,64.70
2017-09-06T16:18:08.479Z,65.80
2017-09-06T16:20:36.040Z,70.60
2017-09-06T16:23:03.665Z,75.90
2017-09-06T16:25:31.249Z,79.90
2017-09-06T16:27:58.915Z,82.00
2017-09-06T16:30:26.654Z,85.20
2017-09-06T16:32:54.248Z,85.30
2017-09-06T16:35:21.890Z,87.00
2017-09-06T16:37:49.511Z,87.00
2017-09-06T16:40:17.117Z,86.60
2017-09-06T16:42:44.705Z,87.60
2017-09-06T16:45:12.298Z,86.90
2017-09-06T16:47:39.889Z,86.40
2017-09-06T16:50:07.532Z,86.40
2017-09-06T16:52:35.107Z,88.00
2017-09-06T16:55:02.711Z,87.90
2017-09-06T16:57:30.315Z,88.10
2017-09-06T16:59:57.883Z,87.40
2017-09-06T17:02:25.508Z,87.20
2017-09-06T17:04:53.115Z,87.10
2017-09-06T17:07:20.708Z,87.40
2017-09-06T17:09:48.312Z,86.70
2017-09-06T17:12:15.886Z,85.90
2017-09-06T17:14:43.536Z,85.70
2017-09-06T17:17:11.129Z,86.30
2017-09-06T17:19:38.735Z,85.60
2017-09-06T17:22:06.293Z,86.20
2017-09-06T17:24:33.900Z,86.00
2017-09-06T17:27:01.470Z,86.10
2017-09-06T17:29:29.051Z,85.00
2017-09-06T17:31:56.642Z,85.20
2017-09-06T17:34:24.267Z,85.20
2017-09-06T17:36:51.913Z,85.20
2017-09-06T17:39:19.504Z,85.00
2017-09-06T17:41:47.135Z,85.40
2017-09-06T17:44:14.705Z,85.00
2017-09-06T17:46:42.331Z,86.00
2017-09-06T17:49:09.927Z,86.30
2017-09-06T17:51:37.528Z,87.70
2017-09-06T17:54:05.116Z,87.40
2017-09-06T17:56:32.751Z,88.70
2017-09-06T17:59:00.361Z,88.40
2017-09-06T18:01:28.722Z,89.60
2017-09-06T18:03:56.341Z,89.50
2017-09-06T18:06:23.931Z,90.00
2017-09-06T18:08:51.526Z,90.10
2017-09-06T18:11:19.115Z,90.40
2017-09-06T18:13:46.762Z,90.40
2017-09-06T18:16:14.333Z,90.70
2017-09-06T18:18:41.898Z,90.70
2017-09-06T18:21:09.507Z,90.80
2017-09-06T18:23:37.069Z,90.70
2017-09-06T18:26:04.683Z,90.80
2017-09-06T18:28:32.259Z,90.90
2017-09-06T18:30:59.830Z,90.90
2017-09-06T18:33:27.429Z,91.20
2017-09-06T18:35:55.018Z,90.70
2017-09-06T18:38:22.630Z,90.70
2017-09-06T18:40:50.204Z,90.60
2017-09-06T18:43:17.856Z,90.90
2017-09-06T18:45:45.452Z,90.60
2017-09-06T18:48:13.031Z,90.50
2017-09-06T18:50:40.644Z,90.70
2017-09-06T18:53:08.235Z,90.60
2017-09-06T18:55:35.849Z,90.60
2017-09-06T18:58:03.436Z,90.60
2017-09-06T19:00:31.002Z,90.70
2017-09-06T19:02:58.613Z,90.80
2017-09-06T19:05:26.172Z,90.90
2017-09-06T19:07:53.784Z,91.60
2017-09-06T19:10:21.368Z,91.90
2017-09-06T19:12:48.934Z,92.40
2017-09-06T19:15:16.536Z,92.80
2017-09-06T19:17:44.096Z,93.10
2017-09-06T19:20:11.682Z,93.20
2017-09-06T19:22:39.259Z,93.70
2017-09-06T19:25:06.863Z,94.20
2017-09-06T19:27:34.429Z,94.50
2017-09-06T19:30:02.786Z,94.60
2017-09-06T19:32:30.387Z,94.60
2017-09-06T19:34:57.976Z,94.80
2017-09-06T19:37:25.557Z,94.80
2017-09-06T19:39:53.145Z,94.90
2017-09-06T19:42:20.751Z,95.20
2017-09-06T19:44:48.366Z,95.30
2017-09-06T19:47:15.960Z,95.30
2017-09-06T19:49:43.540Z,95.70
2017-09-06T19:52:11.125Z,95.90
2017-09-06T19:54:38.708Z,96.10
2017-09-06T19:57:06.292Z,96.80
2017-09-06T19:59:33.907Z,96.20
2017-09-06T20:02:01.505Z,96.10
2017-09-06T20:04:29.099Z,96.00
2017-09-06T20:06:56.696Z,96.00
2017-09-06T20:09:24.322Z,95.40
2017-09-06T20:11:51.950Z,95.10
2017-09-06T20:14:19.520Z,94.60
2017-09-06T20:16:47.132Z,94.60
2017-09-06T20:19:14.744Z,94.20
2017-09-06T20:21:42.331Z,93.80
2017-09-06T20:24:09.906Z,93.00
